Time;durP1;ratioP1;P1;durP2;ratioP2;P2;SDS_P1;SDS_P2;PMS_P1;PMS_P2;Temp;Humidity;BMP_temperature;BMP_pressure;BME280_temperature;BME280_humidity;BME280_pressure;Samples;Min_cycle;Max_cycle;Signal;HPM_P1;HPM_P2
2021/08/06 00:01:59;;;;;;;11.13;8.10;;;12.50;99.90;;;;;;5021652;28;20196;-84
2021/08/06 00:04:26;;;;;;;11.10;8.40;;;12.70;99.90;;;;;;5020288;28;20727;-84
2021/08/06 00:06:59;;;;;;;11.23;9.07;;;12.90;99.90;;;;;;5018827;28;20279;-85
2021/08/06 00:09:25;;;;;;;10.33;8.13;;;13.00;99.90;;;;;;5020302;28;20200;-84
2021/08/06 00:11:57;;;;;;;10.83;7.93;;;13.20;99.90;;;;;;5020292;28;20646;-84
2021/08/06 00:14:24;;;;;;;9.93;8.63;;;13.30;99.90;;;;;;5019546;28;20200;-84
2021/08/06 00:16:51;;;;;;;9.67;8.03;;;13.30;99.90;;;;;;5019949;28;20228;-83
2021/08/06 00:19:20;;;;;;;9.50;7.90;;;13.20;99.90;;;;;;5014407;28;20229;-84
2021/08/06 00:21:47;;;;;;;9.40;8.23;;;13.10;99.90;;;;;;5008220;28;20200;-84
2021/08/06 00:24:15;;;;;;;11.83;8.47;;;13.10;99.90;;;;;;5014569;28;20224;-84
2021/08/06 00:26:42;;;;;;;10.83;8.97;;;13.10;99.90;;;;;;5000288;28;20225;-84
2021/08/06 00:29:10;;;;;;;10.73;8.53;;;13.10;99.90;;;;;;5015336;28;20201;-84
2021/08/06 00:31:37;;;;;;;12.33;8.60;;;13.10;99.90;;;;;;5019270;28;20809;-84
2021/08/06 00:34:03;;;;;;;11.60;8.80;;;13.20;99.90;;;;;;5013619;28;20205;-84
2021/08/06 00:36:32;;;;;;;10.57;8.70;;;13.10;99.90;;;;;;5000008;28;20256;-86
2021/08/06 00:38:59;;;;;;;11.77;9.13;;;13.10;99.90;;;;;;5004152;28;20283;-86
2021/08/06 00:41:26;;;;;;;11.13;9.10;;;13.30;99.90;;;;;;5018697;28;20641;-84
2021/08/06 00:43:53;;;;;;;13.47;9.87;;;13.60;99.90;;;;;;5012956;28;20205;-84
2021/08/06 00:46:20;;;;;;;11.03;8.97;;;13.40;99.90;;;;;;4998948;28;20221;-85
2021/08/06 00:48:48;;;;;;;10.50;8.50;;;13.50;99.90;;;;;;4999387;28;20231;-84
2021/08/06 00:51:15;;;;;;;9.33;7.53;;;13.60;99.90;;;;;;4998981;28;20205;-86
2021/08/06 00:53:44;;;;;;;9.87;8.37;;;13.10;99.90;;;;;;5007160;28;20260;-84
2021/08/06 00:56:12;;;;;;;11.17;8.53;;;12.60;99.90;;;;;;5019215;28;20220;-84
2021/08/06 00:58:39;;;;;;;10.17;8.67;;;12.30;99.90;;;;;;5018081;28;20747;-84
2021/08/06 01:01:06;;;;;;;10.37;8.77;;;12.60;99.90;;;;;;5010498;28;20197;-84
2021/08/06 01:03:44;;;;;;;10.50;8.50;;;12.80;99.90;;;;;;4999003;28;20289;-85
2021/08/06 01:06:18;;;;;;;10.80;8.67;;;13.00;99.90;;;;;;5019464;28;20292;-83
2021/08/06 01:08:51;;;;;;;9.10;8.03;;;13.10;99.90;;;;;;5038407;28;20298;-84
2021/08/06 01:11:22;;;;;;;9.27;8.37;;;13.00;99.90;;;;;;5037706;28;20721;-86
2021/08/06 01:13:54;;;;;;;9.73;8.30;;;13.10;99.90;;;;;;5020752;28;20295;-84
2021/08/06 01:16:26;;;;;;;8.90;8.00;;;13.00;99.90;;;;;;5018967;28;20224;-85
2021/08/06 01:18:59;;;;;;;14.77;10.70;;;12.90;99.90;;;;;;5015810;28;20273;-84
2021/08/06 01:21:28;;;;;;;9.47;8.20;;;12.80;99.90;;;;;;5023815;28;20184;-85
2021/08/06 01:23:58;;;;;;;11.87;8.40;;;12.70;99.90;;;;;;4999391;28;20240;-84
2021/08/06 01:26:27;;;;;;;11.77;8.63;;;12.90;99.90;;;;;;5006873;28;20235;-84
2021/08/06 01:28:54;;;;;;;12.70;8.63;;;12.90;99.90;;;;;;5011228;28;20281;-84
2021/08/06 01:31:25;;;;;;;11.27;9.17;;;12.90;99.90;;;;;;5009215;28;20215;-84
2021/08/06 01:33:52;;;;;;;12.07;8.87;;;12.80;99.90;;;;;;4999714;28;20216;-84
2021/08/06 01:36:19;;;;;;;9.17;7.90;;;12.90;99.90;;;;;;5014859;28;20224;-85
2021/08/06 01:38:46;;;;;;;9.77;8.67;;;12.60;99.90;;;;;;5020261;28;20232;-84
2021/08/06 01:41:20;;;;;;;10.70;8.40;;;12.70;99.90;;;;;;5026131;28;20306;-86
2021/08/06 01:43:58;;;;;;;13.37;8.77;;;12.50;99.90;;;;;;5014832;28;20212;-84
2021/08/06 01:46:30;;;;;;;10.70;8.13;;;12.70;99.90;;;;;;5012572;28;20228;-84
2021/08/06 01:49:02;;;;;;;9.30;7.90;;;12.90;99.90;;;;;;5010592;28;20657;-84
2021/08/06 01:51:33;;;;;;;10.63;8.07;;;12.80;99.90;;;;;;5012887;28;20287;-84
2021/08/06 01:54:02;;;;;;;11.30;8.80;;;12.80;99.90;;;;;;5009028;28;20291;-84
2021/08/06 01:56:29;;;;;;;11.07;9.20;;;12.80;99.90;;;;;;5014184;28;20252;-85
2021/08/06 01:59:00;;;;;;;11.60;9.60;;;12.70;99.90;;;;;;5018446;28;20294;-87
2021/08/06 02:01:27;;;;;;;13.10;9.63;;;12.80;99.90;;;;;;5019309;28;20218;-84
2021/08/06 02:03:53;;;;;;;11.20;8.83;;;13.00;99.90;;;;;;5013447;28;20213;-84
2021/08/06 02:06:20;;;;;;;10.53;8.83;;;12.80;99.90;;;;;;5020541;28;20236;-83
2021/08/06 02:08:48;;;;;;;9.70;8.70;;;12.80;99.90;;;;;;5013048;28;20207;-84
2021/08/06 02:11:18;;;;;;;12.70;9.73;;;12.90;99.90;;;;;;5019449;28;20295;-85
2021/08/06 02:13:45;;;;;;;9.47;8.30;;;13.00;99.90;;;;;;5027911;28;20296;-85
2021/08/06 02:16:14;;;;;;;10.50;8.60;;;12.80;99.90;;;;;;5017244;28;20614;-84
2021/08/06 02:18:42;;;;;;;10.63;7.93;;;12.70;99.90;;;;;;5019497;28;20227;-87
2021/08/06 02:21:11;;;;;;;10.43;8.90;;;12.40;99.90;;;;;;5008738;28;20673;-86
2021/08/06 02:23:43;;;;;;;11.40;8.70;;;12.50;99.90;;;;;;5014259;28;20247;-85
2021/08/06 02:26:12;;;;;;;13.80;9.23;;;12.70;99.90;;;;;;5016237;28;20234;-84
2021/08/06 02:28:39;;;;;;;10.90;9.50;;;12.90;99.90;;;;;;5021144;28;20236;-84
2021/08/06 02:31:07;;;;;;;13.80;9.20;;;13.00;99.90;;;;;;5004378;28;20196;-83
2021/08/06 02:33:36;;;;;;;11.53;9.27;;;13.00;99.90;;;;;;5009242;28;20267;-86
2021/08/06 02:36:03;;;;;;;11.03;9.20;;;13.00;99.90;;;;;;5028241;28;20306;-84
2021/08/06 02:38:30;;;;;;;9.60;8.60;;;13.10;99.90;;;;;;5022864;28;20684;-83
2021/08/06 02:40:57;;;;;;;11.33;8.53;;;13.00;99.90;;;;;;5018857;28;20207;-83
2021/08/06 02:43:24;;;;;;;10.93;8.27;;;12.80;99.90;;;;;;5035130;28;20199;-85
2021/08/06 02:45:51;;;;;;;11.00;8.93;;;12.50;99.90;;;;;;5034904;28;20314;-83
2021/08/06 02:48:18;;;;;;;12.63;9.00;;;12.30;99.90;;;;;;5034273;28;20214;-84
2021/08/06 02:50:47;;;;;;;13.40;9.23;;;12.20;99.90;;;;;;5034252;28;20206;-85
2021/08/06 02:53:14;;;;;;;11.77;9.43;;;12.10;99.90;;;;;;5015891;28;20631;-83
2021/08/06 02:55:41;;;;;;;12.17;9.87;;;12.20;99.90;;;;;;5015204;28;20262;-83
2021/08/06 02:58:08;;;;;;;13.17;9.70;;;12.30;99.90;;;;;;5014699;28;20302;-83
2021/08/06 03:00:35;;;;;;;11.70;9.20;;;12.50;99.90;;;;;;5014463;28;20580;-83
2021/08/06 03:03:01;;;;;;;10.53;9.07;;;12.60;99.90;;;;;;5017745;28;20207;-83
2021/08/06 03:05:28;;;;;;;14.30;10.13;;;12.40;99.90;;;;;;5014460;28;20714;-83
2021/08/06 03:07:56;;;;;;;14.47;9.33;;;12.40;99.90;;;;;;5025347;28;20734;-84
2021/08/06 03:10:24;;;;;;;13.27;9.87;;;12.50;99.90;;;;;;5019651;28;20219;-83
2021/08/06 03:12:52;;;;;;;11.47;9.03;;;12.50;99.90;;;;;;5032687;28;20303;-83
2021/08/06 03:15:20;;;;;;;11.83;10.07;;;12.60;99.90;;;;;;5018125;28;20573;-83
2021/08/06 03:17:47;;;;;;;11.57;10.00;;;12.50;99.90;;;;;;5020184;28;20228;-83
2021/08/06 03:20:16;;;;;;;11.63;9.33;;;12.70;99.90;;;;;;5032287;28;20291;-83
2021/08/06 03:22:43;;;;;;;10.43;8.63;;;12.70;99.90;;;;;;5017641;28;20208;-84
2021/08/06 03:25:12;;;;;;;12.37;9.07;;;12.30;99.90;;;;;;5018667;28;20236;-83
2021/08/06 03:27:40;;;;;;;12.03;9.87;;;12.10;99.90;;;;;;5018616;28;20204;-83
2021/08/06 03:30:09;;;;;;;12.13;10.10;;;11.90;99.90;;;;;;5038525;28;20282;-86
2021/08/06 03:32:36;;;;;;;13.83;11.23;;;12.10;99.90;;;;;;5029976;28;20632;-83
2021/08/06 03:35:04;;;;;;;12.50;10.10;;;12.30;99.90;;;;;;5015274;28;20223;-84
2021/08/06 03:37:31;;;;;;;14.13;10.83;;;12.40;99.90;;;;;;5021186;28;20211;-87
2021/08/06 03:39:58;;;;;;;12.77;10.30;;;12.40;99.90;;;;;;5018337;28;20572;-83
2021/08/06 03:42:26;;;;;;;12.83;10.33;;;12.40;99.90;;;;;;5017704;28;20268;-88
2021/08/06 03:44:53;;;;;;;13.70;10.60;;;12.40;99.90;;;;;;5007702;28;20212;-86
2021/08/06 03:47:20;;;;;;;13.80;10.30;;;12.60;99.90;;;;;;4999426;28;20267;-83
2021/08/06 03:49:47;;;;;;;13.97;10.17;;;12.30;99.90;;;;;;5006473;28;20299;-83
2021/08/06 03:52:14;;;;;;;13.57;10.77;;;12.20;99.90;;;;;;5017879;28;20291;-83
2021/08/06 03:54:41;;;;;;;15.33;11.23;;;12.30;99.90;;;;;;5014987;28;20667;-83
2021/08/06 03:57:08;;;;;;;14.37;11.50;;;12.30;99.90;;;;;;5010513;28;20255;-83
2021/08/06 03:59:36;;;;;;;14.20;11.27;;;12.40;99.90;;;;;;5018706;28;20295;-83
2021/08/06 04:02:03;;;;;;;16.70;11.87;;;12.40;99.90;;;;;;5013301;28;20203;-83
2021/08/06 04:04:30;;;;;;;16.23;12.03;;;12.30;99.90;;;;;;5017501;28;20243;-81
2021/08/06 04:06:57;;;;;;;15.30;12.37;;;12.40;99.90;;;;;;5015970;28;20250;-81
2021/08/06 04:09:24;;;;;;;16.63;13.57;;;12.40;99.90;;;;;;5000778;28;20292;-82
2021/08/06 04:11:50;;;;;;;17.03;12.93;;;12.40;99.90;;;;;;5019628;28;20236;-80
2021/08/06 04:14:18;;;;;;;18.33;13.47;;;12.60;99.90;;;;;;5018663;28;20234;-84
2021/08/06 04:16:47;;;;;;;18.03;13.67;;;12.90;99.90;;;;;;5018147;28;20564;-81
2021/08/06 04:19:14;;;;;;;18.87;13.93;;;12.70;99.90;;;;;;5017833;28;20282;-81
2021/08/06 04:21:41;;;;;;;20.53;14.13;;;12.70;99.90;;;;;;5018378;28;20295;-80
2021/08/06 04:24:08;;;;;;;18.70;14.93;;;12.70;99.90;;;;;;5018023;28;20282;-85
2021/08/06 04:26:34;;;;;;;20.93;15.47;;;12.80;99.90;;;;;;5019153;28;20258;-80
2021/08/06 04:29:01;;;;;;;21.67;15.57;;;12.80;99.90;;;;;;5031655;28;20199;-84
2021/08/06 04:31:28;;;;;;;20.63;15.90;;;13.00;99.90;;;;;;5027706;28;20712;-80
2021/08/06 04:33:56;;;;;;;16.97;13.50;;;13.10;99.90;;;;;;5019042;28;20220;-80
2021/08/06 04:36:23;;;;;;;17.20;13.23;;;13.10;99.90;;;;;;5016905;28;20235;-80
2021/08/06 04:38:50;;;;;;;16.90;13.37;;;13.10;99.90;;;;;;4998887;28;20315;-82
2021/08/06 04:41:17;;;;;;;16.13;13.33;;;13.10;99.90;;;;;;4998429;28;20236;-81
2021/08/06 04:43:44;;;;;;;17.17;14.20;;;13.00;99.90;;;;;;4999066;28;20292;-80
2021/08/06 04:46:10;;;;;;;21.30;14.83;;;13.20;99.90;;;;;;4997839;28;20359;-83
2021/08/06 04:48:37;;;;;;;20.20;14.50;;;13.60;99.90;;;;;;5011536;28;20295;-81
2021/08/06 04:51:05;;;;;;;18.80;14.20;;;13.50;99.90;;;;;;5018761;28;20227;-83
2021/08/06 04:53:34;;;;;;;18.87;13.70;;;13.50;99.90;;;;;;5000691;28;20295;-83
2021/08/06 04:56:01;;;;;;;18.43;13.87;;;13.40;99.90;;;;;;5008873;28;20231;-83
2021/08/06 04:58:28;;;;;;;16.87;13.77;;;13.60;99.90;;;;;;5021979;28;20575;-84
2021/08/06 05:00:55;;;;;;;20.50;13.07;;;13.80;99.90;;;;;;5008464;28;20208;-83
2021/08/06 05:03:22;;;;;;;17.63;13.07;;;13.80;99.90;;;;;;5009263;28;20200;-82
2021/08/06 05:05:49;;;;;;;16.40;12.43;;;13.90;99.90;;;;;;5017002;28;20738;-83
2021/08/06 05:08:17;;;;;;;14.07;11.20;;;14.20;99.90;;;;;;5018282;28;20232;-82
2021/08/06 05:10:44;;;;;;;14.00;11.53;;;14.30;99.90;;;;;;5018561;28;20200;-83
2021/08/06 05:13:11;;;;;;;17.20;12.93;;;14.50;99.90;;;;;;5017389;28;20271;-82
2021/08/06 05:15:37;;;;;;;14.47;11.30;;;14.60;99.90;;;;;;5018447;28;20267;-82
2021/08/06 05:18:04;;;;;;;14.27;12.00;;;14.80;99.90;;;;;;5016777;28;20280;-82
2021/08/06 05:20:32;;;;;;;14.07;10.80;;;14.70;99.90;;;;;;5019922;28;20200;-82
2021/08/06 05:22:59;;;;;;;13.57;10.80;;;15.00;99.90;;;;;;5016326;28;20208;-82
2021/08/06 05:25:28;;;;;;;13.63;11.20;;;15.10;99.90;;;;;;5017195;28;20230;-82
2021/08/06 05:27:54;;;;;;;13.47;11.10;;;15.20;99.90;;;;;;5015016;28;20204;-83
2021/08/06 05:30:22;;;;;;;12.77;10.50;;;15.60;99.90;;;;;;5016131;28;20616;-83
2021/08/06 05:32:49;;;;;;;12.60;10.53;;;15.80;99.90;;;;;;5015553;28;20204;-82
2021/08/06 05:35:16;;;;;;;13.47;9.93;;;15.80;99.90;;;;;;5015756;28;20284;-80
2021/08/06 05:37:43;;;;;;;11.07;9.33;;;15.80;99.90;;;;;;5012014;28;20486;-83
2021/08/06 05:40:10;;;;;;;12.77;10.03;;;15.70;99.90;;;;;;5016022;28;20235;-82
2021/08/06 05:42:39;;;;;;;12.50;9.37;;;15.90;99.90;;;;;;5009632;28;20748;-81
2021/08/06 05:45:07;;;;;;;14.57;9.93;;;16.00;99.90;;;;;;5016462;28;20295;-81
2021/08/06 05:47:46;;;;;;;15.88;13.00;;;16.10;99.90;;;;;;5012835;28;20201;-82
2021/08/06 05:50:14;;;;;;;10.40;8.88;;;16.10;99.90;;;;;;5017463;28;20208;-82
2021/08/06 05:52:41;;;;;;;10.43;8.13;;;16.20;99.90;;;;;;5011959;28;20240;-82
2021/08/06 05:55:09;;;;;;;10.85;8.88;;;16.40;99.90;;;;;;5016723;28;20663;-83
2021/08/06 05:57:36;;;;;;;11.60;8.48;;;16.40;99.90;;;;;;5018244;28;20251;-81
2021/08/06 06:00:05;;;;;;;10.68;8.60;;;16.40;99.90;;;;;;5017118;28;20294;-80
2021/08/06 06:02:32;;;;;;;12.32;8.73;;;16.60;99.90;;;;;;5014519;28;20206;-82
2021/08/06 06:04:59;;;;;;;10.95;7.85;;;16.70;99.90;;;;;;5016417;28;20699;-81
2021/08/06 06:07:26;;;;;;;9.77;8.00;;;16.70;99.90;;;;;;5016287;28;20227;-84
2021/08/06 06:09:53;;;;;;;10.30;7.60;;;16.60;99.90;;;;;;5017570;28;20227;-83
2021/08/06 06:12:20;;;;;;;8.68;7.78;;;16.60;99.90;;;;;;5016311;28;20204;-83
2021/08/06 06:14:46;;;;;;;9.68;7.97;;;16.60;99.90;;;;;;5020677;28;20290;-84
2021/08/06 06:17:15;;;;;;;9.13;7.97;;;16.80;99.90;;;;;;5016516;28;20251;-84
2021/08/06 06:19:44;;;;;;;10.15;8.63;;;16.90;99.90;;;;;;5018302;28;20270;-83
2021/08/06 06:22:11;;;;;;;10.85;8.48;;;17.00;99.90;;;;;;5011660;28;20732;-83
2021/08/06 06:24:38;;;;;;;9.52;8.00;;;17.00;99.90;;;;;;5011265;28;20307;-83
2021/08/06 06:27:06;;;;;;;8.85;7.93;;;17.00;99.90;;;;;;5015537;28;20712;-83
2021/08/06 06:29:33;;;;;;;8.18;7.38;;;17.20;99.90;;;;;;5013323;28;20212;-83
2021/08/06 06:32:00;;;;;;;8.48;7.03;;;17.40;99.90;;;;;;5016341;28;20231;-84
2021/08/06 06:34:29;;;;;;;8.20;7.30;;;17.50;99.90;;;;;;5014212;28;20255;-84
2021/08/06 06:36:56;;;;;;;10.70;6.75;;;17.60;99.90;;;;;;5015118;28;20299;-83
2021/08/06 06:39:22;;;;;;;11.55;7.53;;;17.60;99.90;;;;;;5014696;28;20337;-83
2021/08/06 06:41:49;;;;;;;10.43;7.47;;;17.60;99.90;;;;;;5012763;28;20224;-82
2021/08/06 06:44:16;;;;;;;8.70;6.57;;;17.70;99.90;;;;;;5012822;28;20212;-83
2021/08/06 06:46:43;;;;;;;7.70;6.50;;;17.80;99.90;;;;;;5011131;28;20303;-84
2021/08/06 06:49:10;;;;;;;8.27;6.45;;;18.00;99.90;;;;;;5016237;28;20210;-83
2021/08/06 06:51:38;;;;;;;6.22;5.30;;;18.10;99.90;;;;;;5014188;28;20752;-83
2021/08/06 06:54:05;;;;;;;7.00;5.90;;;18.10;99.90;;;;;;5011439;28;20283;-82
2021/08/06 06:56:32;;;;;;;5.65;5.10;;;18.20;99.90;;;;;;5014044;28;20655;-83
2021/08/06 06:58:59;;;;;;;7.63;5.30;;;18.20;99.90;;;;;;5016573;28;20719;-84
2021/08/06 07:01:26;;;;;;;6.25;5.40;;;18.10;99.90;;;;;;5017208;28;20702;-82
2021/08/06 07:03:52;;;;;;;5.95;5.35;;;18.20;99.90;;;;;;5016623;28;20283;-83
2021/08/06 07:06:20;;;;;;;6.78;5.50;;;18.40;99.90;;;;;;5016230;28;20700;-83
2021/08/06 07:08:48;;;;;;;6.35;5.70;;;18.40;99.90;;;;;;5016985;28;20263;-83
2021/08/06 07:11:15;;;;;;;5.97;5.20;;;18.40;99.90;;;;;;5015812;28;20573;-83
2021/08/06 07:13:43;;;;;;;5.78;4.97;;;18.50;99.90;;;;;;5013231;28;20218;-83
2021/08/06 07:16:10;;;;;;;4.82;4.43;;;18.60;99.90;;;;;;5016258;28;20314;-83
2021/08/06 07:18:37;;;;;;;5.35;4.85;;;18.70;99.90;;;;;;5011932;28;20236;-84
2021/08/06 07:21:05;;;;;;;5.63;4.97;;;18.80;99.90;;;;;;5008742;28;20204;-83
2021/08/06 07:23:32;;;;;;;4.90;4.35;;;18.80;99.90;;;;;;5013862;28;20204;-83
2021/08/06 07:26:00;;;;;;;6.70;4.88;;;18.90;99.90;;;;;;5014399;28;20707;-82
2021/08/06 07:28:27;;;;;;;5.32;4.82;;;18.80;99.90;;;;;;5014079;28;20215;-82
2021/08/06 07:30:54;;;;;;;5.75;4.93;;;18.80;99.90;;;;;;5010831;28;20222;-82
2021/08/06 07:33:21;;;;;;;6.30;4.90;;;18.80;99.90;;;;;;5015418;28;20652;-82
2021/08/06 07:35:48;;;;;;;5.40;4.72;;;18.90;99.90;;;;;;5010931;28;20224;-83
2021/08/06 07:38:15;;;;;;;5.30;4.80;;;18.90;99.90;;;;;;5010591;28;20739;-82
2021/08/06 07:40:42;;;;;;;5.45;4.53;;;18.90;99.90;;;;;;5014519;28;20258;-82
2021/08/06 07:43:10;;;;;;;6.65;5.18;;;19.00;99.90;;;;;;5012266;28;20200;-83
2021/08/06 07:45:37;;;;;;;5.75;5.25;;;19.00;99.90;;;;;;5010850;28;20255;-83
2021/08/06 07:48:05;;;;;;;5.28;4.78;;;19.00;99.90;;;;;;5008748;28;20241;-84
2021/08/06 07:50:31;;;;;;;6.45;4.65;;;19.00;99.90;;;;;;5010818;28;20721;-82
2021/08/06 07:52:58;;;;;;;9.65;5.43;;;19.10;99.90;;;;;;5009735;28;20255;-84
2021/08/06 07:55:25;;;;;;;5.00;4.45;;;19.20;99.90;;;;;;5018114;28;20212;-84
2021/08/06 07:57:52;;;;;;;4.82;4.43;;;19.30;99.90;;;;;;5021926;28;20215;-84
2021/08/06 08:00:20;;;;;;;5.95;4.82;;;19.40;99.90;;;;;;5022335;28;20252;-84
2021/08/06 08:02:47;;;;;;;4.88;4.47;;;19.60;99.90;;;;;;5024327;28;20239;-83
2021/08/06 08:05:15;;;;;;;5.60;4.97;;;19.70;99.90;;;;;;5023128;28;20596;-85
2021/08/06 08:07:41;;;;;;;5.57;4.95;;;19.80;99.90;;;;;;5019183;28;20661;-85
2021/08/06 08:10:09;;;;;;;4.80;4.30;;;19.70;99.90;;;;;;5014840;28;20287;-85
2021/08/06 08:12:36;;;;;;;6.38;5.00;;;19.80;99.90;;;;;;5016061;28;20242;-85
2021/08/06 08:15:04;;;;;;;6.88;4.78;;;19.90;99.90;;;;;;5016451;28;20232;-85
2021/08/06 08:17:32;;;;;;;6.47;4.68;;;20.00;99.90;;;;;;5017126;28;20228;-83
2021/08/06 08:19:59;;;;;;;4.60;4.20;;;20.10;99.90;;;;;;5021548;28;20259;-84
2021/08/06 08:22:26;;;;;;;4.88;4.38;;;20.30;99.90;;;;;;5019023;28;20291;-83
2021/08/06 08:24:53;;;;;;;4.55;4.15;;;20.30;99.90;;;;;;5020659;28;20218;-83
2021/08/06 08:27:20;;;;;;;4.45;3.90;;;20.20;99.90;;;;;;5019574;28;20307;-83
2021/08/06 08:29:47;;;;;;;4.70;4.30;;;20.40;99.90;;;;;;5023401;28;20212;-82
2021/08/06 08:32:14;;;;;;;4.93;4.40;;;20.50;99.90;;;;;;5016118;28;20208;-84
2021/08/06 08:34:43;;;;;;;5.78;4.97;;;20.70;99.90;;;;;;5016828;28;20307;-85
2021/08/06 08:37:10;;;;;;;6.82;4.28;;;20.50;99.90;;;;;;5015813;28;20232;-84
2021/08/06 08:39:38;;;;;;;5.72;4.57;;;20.50;99.90;;;;;;5018378;28;20224;-84
2021/08/06 08:42:05;;;;;;;6.30;5.00;;;20.50;99.90;;;;;;5017852;28;20231;-83
2021/08/06 08:44:32;;;;;;;5.68;4.35;;;20.70;99.90;;;;;;5017777;28;20234;-84
2021/08/06 08:46:59;;;;;;;5.47;4.97;;;20.60;99.90;;;;;;5017588;28;20316;-83
2021/08/06 08:49:31;;;;;;;6.70;4.75;;;20.80;99.90;;;;;;5013827;28;20212;-83
2021/08/06 08:52:01;;;;;;;6.07;4.72;;;20.80;99.90;;;;;;5015054;28;20647;-83
2021/08/06 08:54:28;;;;;;;7.57;4.53;;;20.60;99.90;;;;;;5015523;28;20208;-84
2021/08/06 08:56:55;;;;;;;5.15;4.20;;;20.70;99.90;;;;;;5015281;28;20271;-83
2021/08/06 08:59:22;;;;;;;6.28;4.15;;;20.70;99.90;;;;;;5015831;28;20258;-85
2021/08/06 09:01:49;;;;;;;4.82;4.43;;;20.90;99.90;;;;;;5013339;28;20235;-84
2021/08/06 09:04:20;;;;;;;5.00;4.00;;;20.90;99.90;;;;;;5015097;28;20228;-84
2021/08/06 09:06:48;;;;;;;5.22;4.72;;;21.40;99.90;;;;;;5013749;28;20236;-84
2021/08/06 09:09:20;;;;;;;5.40;4.43;;;22.20;99.90;;;;;;5012008;28;20200;-83
2021/08/06 09:11:47;;;;;;;5.20;4.55;;;22.90;99.90;;;;;;5013579;28;20216;-84
2021/08/06 09:14:19;;;;;;;5.43;4.40;;;22.30;99.90;;;;;;5012729;28;20214;-84
2021/08/06 09:17:01;;;;;;;4.63;3.95;;;22.30;99.90;;;;;;5011559;28;20259;-83
2021/08/06 09:19:29;;;;;;;4.70;4.00;;;22.30;99.90;;;;;;5010917;28;20282;-84
2021/08/06 09:22:18;;;;;;;4.68;4.28;;;22.20;99.90;;;;;;5010314;28;20295;-84
2021/08/06 09:25:10;;;;;;;5.07;3.72;;;22.50;99.90;;;;;;5011264;28;20216;-83
2021/08/06 09:27:39;;;;;;;4.60;4.20;;;23.10;99.90;;;;;;5003170;28;20219;-82
2021/08/06 09:30:10;;;;;;;4.35;3.55;;;22.70;99.90;;;;;;5011889;28;20629;-82
2021/08/06 09:32:48;;;;;;;4.43;4.03;;;22.50;99.90;;;;;;5009524;28;20732;-82
2021/08/06 09:35:16;;;;;;;4.78;4.10;;;22.70;99.90;;;;;;5004756;28;20276;-83
2021/08/06 09:37:44;;;;;;;5.20;3.88;;;22.40;99.90;;;;;;5010846;28;20272;-83
2021/08/06 09:40:18;;;;;;;3.85;3.45;;;23.00;99.90;;;;;;5011381;28;20244;-83
2021/08/06 09:42:51;;;;;;;4.30;3.50;;;23.50;99.90;;;;;;5007304;28;20518;-85
2021/08/06 09:45:21;;;;;;;4.82;4.18;;;24.10;99.90;;;;;;5010419;28;20208;-84
2021/08/06 09:47:55;;;;;;;5.30;3.50;;;24.50;99.90;;;;;;5006653;28;20676;-84
2021/08/06 09:50:23;;;;;;;4.18;3.78;;;24.30;99.90;;;;;;5009738;28;20205;-85
2021/08/06 09:52:52;;;;;;;4.75;3.20;;;24.40;99.90;;;;;;5014794;28;20208;-84
2021/08/06 09:55:23;;;;;;;4.65;3.38;;;24.50;99.90;;;;;;5008632;28;20613;-82
2021/08/06 09:57:51;;;;;;;3.38;3.00;;;25.30;99.90;;;;;;5002143;28;20208;-83
2021/08/06 10:00:19;;;;;;;5.45;3.90;;;25.20;99.90;;;;;;5005308;28;20599;-84
2021/08/06 10:02:46;;;;;;;4.43;3.45;;;23.70;99.90;;;;;;5013721;28;20275;-83
2021/08/06 10:05:14;;;;;;;3.75;3.22;;;23.50;99.90;;;;;;5009096;28;20236;-83
2021/08/06 10:07:43;;;;;;;3.85;3.38;;;22.90;99.90;;;;;;5009388;28;20224;-84
2021/08/06 10:10:13;;;;;;;4.72;3.80;;;23.00;99.90;;;;;;5003971;28;20201;-83
2021/08/06 10:12:41;;;;;;;3.83;3.00;;;23.10;99.90;;;;;;5006473;28;20307;-84
2021/08/06 10:15:09;;;;;;;3.60;3.30;;;23.40;99.90;;;;;;5008131;28;20748;-83
2021/08/06 10:17:36;;;;;;;3.63;3.30;;;23.60;99.90;;;;;;5011803;28;20204;-85
2021/08/06 10:20:04;;;;;;;4.13;3.72;;;23.50;99.90;;;;;;5008711;28;20307;-83
2021/08/06 10:22:31;;;;;;;5.47;3.05;;;23.70;99.90;;;;;;5010122;28;20204;-84
2021/08/06 10:24:58;;;;;;;3.40;3.10;;;23.60;99.90;;;;;;5009295;28;20701;-84
2021/08/06 10:27:28;;;;;;;2.80;2.60;;;24.30;99.90;;;;;;5010429;28;20215;-83
2021/08/06 10:29:59;;;;;;;3.20;2.90;;;24.00;99.90;;;;;;5005834;28;20200;-83
2021/08/06 10:32:27;;;;;;;3.92;3.10;;;24.00;99.90;;;;;;5003670;28;20292;-84
2021/08/06 10:35:16;;;;;;;3.20;2.90;;;24.00;99.90;;;;;;5012577;28;20664;-84
2021/08/06 10:37:58;;;;;;;5.80;3.00;;;23.50;99.90;;;;;;5010731;28;20602;-86
2021/08/06 10:41:03;;;;;;;3.42;3.13;;;23.50;99.90;;;;;;5002812;28;20224;-84
2021/08/06 10:44:02;;;;;;;4.00;3.00;;;23.10;99.90;;;;;;5007178;28;20212;-87
2021/08/06 10:46:57;;;;;;;3.53;3.20;;;23.00;99.90;;;;;;5003917;28;20298;-84
2021/08/06 10:49:24;;;;;;;4.28;3.00;;;22.50;99.90;;;;;;5011590;28;20213;-85
2021/08/06 10:52:15;;;;;;;3.65;3.35;;;22.60;99.90;;;;;;5007051;28;20240;-85
2021/08/06 10:54:42;;;;;;;3.20;2.97;;;22.50;99.90;;;;;;5007820;28;20268;-85
2021/08/06 10:57:39;;;;;;;3.63;3.20;;;22.30;99.90;;;;;;5011699;28;20287;-84
2021/08/06 11:00:08;;;;;;;3.30;3.10;;;22.40;99.90;;;;;;5009895;28;20286;-85
2021/08/06 11:02:48;;;;;;;3.58;3.15;;;22.50;99.90;;;;;;5014438;28;20200;-84
2021/08/06 11:05:46;;;;;;;3.78;3.00;;;22.60;99.90;;;;;;5011784;28;20212;-84
2021/08/06 11:08:56;;;;;;;3.58;2.75;;;23.00;99.90;;;;;;5014891;28;20242;-83
2021/08/06 11:11:54;;;;;;;3.95;3.13;;;23.50;99.90;;;;;;5010936;28;20200;-83
2021/08/06 11:15:02;;;;;;;5.25;3.03;;;24.20;99.90;;;;;;5009360;28;20248;-83
2021/08/06 11:17:47;;;;;;;3.22;2.92;;;25.20;99.90;;;;;;5006078;28;20227;-83
2021/08/06 11:20:19;;;;;;;3.05;2.80;;;25.70;99.90;;;;;;5010949;28;20232;-83
2021/08/06 11:22:47;;;;;;;2.97;2.75;;;25.60;99.90;;;;;;5010661;28;20307;-83
2021/08/06 11:25:18;;;;;;;4.35;3.17;;;25.80;99.90;;;;;;5012284;28;20232;-83
2021/08/06 11:27:47;;;;;;;2.88;2.67;;;25.20;99.90;;;;;;5013852;28;20240;-84
2021/08/06 11:30:16;;;;;;;4.05;3.65;;;24.50;99.90;;;;;;5010275;28;20259;-83
2021/08/06 11:32:49;;;;;;;3.15;2.90;;;24.00;99.90;;;;;;5011218;28;20224;-84
2021/08/06 11:35:18;;;;;;;3.03;2.55;;;24.00;99.90;;;;;;5014978;28;20214;-84
2021/08/06 11:37:51;;;;;;;4.30;3.40;;;23.90;99.90;;;;;;5016008;28;20262;-84
2021/08/06 11:40:21;;;;;;;3.28;2.97;;;23.70;99.90;;;;;;5014517;28;20319;-84
2021/08/06 11:42:49;;;;;;;5.25;4.25;;;23.60;99.90;;;;;;5017627;28;20216;-84
2021/08/06 11:45:18;;;;;;;3.47;2.60;;;23.50;99.90;;;;;;5013238;28;20630;-84
2021/08/06 11:47:46;;;;;;;2.90;2.70;;;23.60;99.90;;;;;;5013899;28;20287;-85
2021/08/06 11:50:15;;;;;;;2.70;2.50;;;23.40;99.90;;;;;;5008782;28;20615;-85
2021/08/06 11:52:46;;;;;;;3.17;2.83;;;22.80;99.90;;;;;;5012862;28;20689;-85
2021/08/06 11:55:14;;;;;;;2.78;2.58;;;22.20;99.90;;;;;;5014666;28;20231;-85
2021/08/06 11:57:52;;;;;;;3.17;2.63;;;21.90;99.90;;;;;;5013394;28;20212;-85
2021/08/06 12:00:25;;;;;;;3.28;2.97;;;21.50;99.90;;;;;;5010298;28;20308;-84
2021/08/06 12:03:06;;;;;;;4.53;3.65;;;21.60;99.90;;;;;;5009207;28;20636;-85
2021/08/06 12:05:34;;;;;;;3.47;3.17;;;21.70;99.90;;;;;;5007309;28;20366;-85
2021/08/06 12:08:18;;;;;;;2.75;2.55;;;21.50;99.90;;;;;;5008596;28;21042;-85
2021/08/06 12:10:47;;;;;;;2.63;2.28;;;21.50;99.90;;;;;;5016654;28;20222;-84
2021/08/06 12:13:15;;;;;;;3.00;2.35;;;21.50;99.90;;;;;;5017765;28;20692;-84
2021/08/06 12:15:42;;;;;;;2.60;2.40;;;21.90;99.90;;;;;;5014359;28;20429;-84
2021/08/06 12:18:15;;;;;;;2.13;1.83;;;22.10;99.90;;;;;;5015391;28;20213;-84
2021/08/06 12:20:44;;;;;;;2.20;2.00;;;22.00;99.90;;;;;;5010405;28;20237;-84
2021/08/06 12:23:12;;;;;;;1.90;1.80;;;22.10;99.90;;;;;;5015244;28;20224;-85
2021/08/06 12:25:40;;;;;;;2.60;2.30;;;22.20;99.90;;;;;;5015650;28;20224;-84
2021/08/06 12:28:20;;;;;;;2.58;2.38;;;21.90;99.90;;;;;;5021144;28;20207;-84
2021/08/06 12:30:47;;;;;;;3.15;2.20;;;21.90;99.90;;;;;;5014548;28;20293;-85
2021/08/06 12:33:22;;;;;;;3.47;2.60;;;22.10;99.90;;;;;;5015897;28;20319;-85
2021/08/06 12:35:48;;;;;;;2.78;2.58;;;21.70;99.90;;;;;;5015697;28;20266;-84
2021/08/06 12:38:24;;;;;;;2.92;2.47;;;21.30;99.90;;;;;;5017367;28;20271;-84
2021/08/06 12:40:52;;;;;;;2.33;2.10;;;20.80;99.90;;;;;;5008549;28;20277;-86
2021/08/06 12:43:21;;;;;;;2.05;1.95;;;20.30;99.90;;;;;;5011641;28;20905;-85
2021/08/06 12:46:14;;;;;;;1.70;1.60;;;20.00;99.90;;;;;;5012732;28;20790;-83
2021/08/06 12:49:04;;;;;;;2.90;2.10;;;19.80;99.90;;;;;;5011689;28;20298;-83
2021/08/06 12:51:32;;;;;;;3.15;1.95;;;19.70;99.90;;;;;;5014263;28;20255;-85
2021/08/06 12:53:59;;;;;;;2.10;2.00;;;19.60;99.90;;;;;;5015452;28;20659;-86